sensor_id;sensor_type;location;lat;lon;timestamp;temperature;humidity
2327;DHT22;1174;51.588;7.328;2023-02-01T00:01:21;6.10;99.90
2327;DHT22;1174;51.588;7.328;2023-02-01T00:03:48;6.20;99.90
2327;DHT22;1174;51.588;7.328;2023-02-01T00:06:15;6.20;99.90
2327;DHT22;1174;51.588;7.328;2023-02-01T00:08:41;6.30;99.90
2327;DHT22;1174;51.588;7.328;2023-02-01T00:11:11;6.30;99.90
2327;DHT22;1174;51.588;7.328;2023-02-01T00:13:40;6.30;99.90
2327;DHT22;1174;51.588;7.328;2023-02-01T00:16:09;6.40;99.90
2327;DHT22;1174;51.588;7.328;2023-02-01T00:18:37;6.40;99.90
2327;DHT22;1174;51.588;7.328;2023-02-01T00:21:05;6.40;99.90
2327;DHT22;1174;51.588;7.328;2023-02-01T00:23:33;6.40;99.90
2327;DHT22;1174;51.588;7.328;2023-02-01T00:26:00;6.40;99.90
2327;DHT22;1174;51.588;7.328;2023-02-01T00:28:29;6.40;99.90
2327;DHT22;1174;51.588;7.328;2023-02-01T00:30:56;6.40;99.90
2327;DHT22;1174;51.588;7.328;2023-02-01T00:33:23;6.40;99.90
2327;DHT22;1174;51.588;7.328;2023-02-01T00:35:51;6.40;99.90
2327;DHT22;1174;51.588;7.328;2023-02-01T00:38:18;6.40;99.90
2327;DHT22;1174;51.588;7.328;2023-02-01T00:40:45;6.40;99.90
2327;DHT22;1174;51.588;7.328;2023-02-01T00:43:12;6.40;99.90
2327;DHT22;1174;51.588;7.328;2023-02-01T00:45:40;6.40;99.90
2327;DHT22;1174;51.588;7.328;2023-02-01T00:48:07;6.40;99.90
2327;DHT22;1174;51.588;7.328;2023-02-01T00:50:34;6.50;99.90
2327;DHT22;1174;51.588;7.328;2023-02-01T00:53:01;6.50;99.90
2327;DHT22;1174;51.588;7.328;2023-02-01T00:55:27;6.50;99.90
2327;DHT22;1174;51.588;7.328;2023-02-01T00:57:54;6.50;99.90
2327;DHT22;1174;51.588;7.328;2023-02-01T01:00:22;6.50;99.90
2327;DHT22;1174;51.588;7.328;2023-02-01T01:02:50;6.50;99.90
2327;DHT22;1174;51.588;7.328;2023-02-01T01:05:18;6.50;99.90
2327;DHT22;1174;51.588;7.328;2023-02-01T01:07:45;6.50;99.90
2327;DHT22;1174;51.588;7.328;2023-02-01T01:10:13;6.60;99.90
2327;DHT22;1174;51.588;7.328;2023-02-01T01:12:40;6.60;99.90
2327;DHT22;1174;51.588;7.328;2023-02-01T01:15:08;6.60;99.90
2327;DHT22;1174;51.588;7.328;2023-02-01T01:17:35;6.60;99.90
2327;DHT22;1174;51.588;7.328;2023-02-01T01:20:04;6.60;99.90
2327;DHT22;1174;51.588;7.328;2023-02-01T01:22:31;6.60;99.90
2327;DHT22;1174;51.588;7.328;2023-02-01T01:24:58;6.60;99.90
2327;DHT22;1174;51.588;7.328;2023-02-01T01:27:24;6.60;99.90
2327;DHT22;1174;51.588;7.328;2023-02-01T01:29:52;6.60;99.90
2327;DHT22;1174;51.588;7.328;2023-02-01T01:32:18;6.60;99.90
2327;DHT22;1174;51.588;7.328;2023-02-01T01:34:45;6.60;99.90
2327;DHT22;1174;51.588;7.328;2023-02-01T01:37:13;6.70;99.90
2327;DHT22;1174;51.588;7.328;2023-02-01T01:39:41;6.70;99.90
2327;DHT22;1174;51.588;7.328;2023-02-01T01:42:10;6.70;99.90
2327;DHT22;1174;51.588;7.328;2023-02-01T01:45:00;6.70;99.90
2327;DHT22;1174;51.588;7.328;2023-02-01T01:47:33;6.70;99.90
2327;DHT22;1174;51.588;7.328;2023-02-01T01:50:03;6.70;99.90
2327;DHT22;1174;51.588;7.328;2023-02-01T01:52:32;6.60;99.90
2327;DHT22;1174;51.588;7.328;2023-02-01T01:54:59;6.60;99.90
2327;DHT22;1174;51.588;7.328;2023-02-01T01:57:29;6.60;99.90
2327;DHT22;1174;51.588;7.328;2023-02-01T02:00:04;6.60;99.90
2327;DHT22;1174;51.588;7.328;2023-02-01T02:02:32;6.70;99.90
2327;DHT22;1174;51.588;7.328;2023-02-01T02:04:59;6.70;99.90
2327;DHT22;1174;51.588;7.328;2023-02-01T02:07:32;6.60;99.90
2327;DHT22;1174;51.588;7.328;2023-02-01T02:10:00;6.60;99.90
2327;DHT22;1174;51.588;7.328;2023-02-01T02:12:28;6.60;99.90
2327;DHT22;1174;51.588;7.328;2023-02-01T02:14:55;6.60;99.90
2327;DHT22;1174;51.588;7.328;2023-02-01T02:17:30;6.50;99.90
2327;DHT22;1174;51.588;7.328;2023-02-01T02:20:28;6.60;99.90
2327;DHT22;1174;51.588;7.328;2023-02-01T02:23:20;6.60;99.90
2327;DHT22;1174;51.588;7.328;2023-02-01T02:26:25;6.60;99.90
2327;DHT22;1174;51.588;7.328;2023-02-01T02:29:40;6.60;99.90
2327;DHT22;1174;51.588;7.328;2023-02-01T02:35:13;6.60;99.90
2327;DHT22;1174;51.588;7.328;2023-02-01T02:37:48;6.60;99.90
2327;DHT22;1174;51.588;7.328;2023-02-01T02:40:25;6.50;99.90
2327;DHT22;1174;51.588;7.328;2023-02-01T02:42:58;6.50;99.90
2327;DHT22;1174;51.588;7.328;2023-02-01T02:45:51;6.50;99.90
2327;DHT22;1174;51.588;7.328;2023-02-01T02:48:43;6.60;99.90
2327;DHT22;1174;51.588;7.328;2023-02-01T02:51:14;6.60;99.90
2327;DHT22;1174;51.588;7.328;2023-02-01T02:54:05;6.70;99.90
2327;DHT22;1174;51.588;7.328;2023-02-01T02:56:51;6.70;99.90
2327;DHT22;1174;51.588;7.328;2023-02-01T02:59:37;6.60;99.90
2327;DHT22;1174;51.588;7.328;2023-02-01T03:02:22;6.50;99.90
2327;DHT22;1174;51.588;7.328;2023-02-01T03:05:06;6.50;99.90
2327;DHT22;1174;51.588;7.328;2023-02-01T03:08:02;6.50;99.90
2327;DHT22;1174;51.588;7.328;2023-02-01T03:10:35;6.50;99.90
2327;DHT22;1174;51.588;7.328;2023-02-01T03:13:07;6.50;99.90
2327;DHT22;1174;51.588;7.328;2023-02-01T03:15:39;6.50;99.90
2327;DHT22;1174;51.588;7.328;2023-02-01T03:18:13;6.50;99.90
2327;DHT22;1174;51.588;7.328;2023-02-01T03:20:45;6.50;99.90
2327;DHT22;1174;51.588;7.328;2023-02-01T03:23:17;6.50;99.90
2327;DHT22;1174;51.588;7.328;2023-02-01T03:25:47;6.50;99.90
2327;DHT22;1174;51.588;7.328;2023-02-01T03:28:15;6.40;99.90
2327;DHT22;1174;51.588;7.328;2023-02-01T03:30:46;6.50;99.90
2327;DHT22;1174;51.588;7.328;2023-02-01T03:33:17;6.50;99.90
2327;DHT22;1174;51.588;7.328;2023-02-01T03:35:52;6.50;99.90
2327;DHT22;1174;51.588;7.328;2023-02-01T03:38:24;6.40;99.90
2327;DHT22;1174;51.588;7.328;2023-02-01T03:40:57;6.40;99.90
2327;DHT22;1174;51.588;7.328;2023-02-01T03:43:28;6.40;99.90
2327;DHT22;1174;51.588;7.328;2023-02-01T03:46:01;6.40;99.90
2327;DHT22;1174;51.588;7.328;2023-02-01T03:48:30;6.40;99.90
2327;DHT22;1174;51.588;7.328;2023-02-01T03:50:59;6.50;99.90
2327;DHT22;1174;51.588;7.328;2023-02-01T03:53:30;6.40;99.90
2327;DHT22;1174;51.588;7.328;2023-02-01T03:55:58;6.40;99.90
2327;DHT22;1174;51.588;7.328;2023-02-01T03:58:25;6.40;99.90
2327;DHT22;1174;51.588;7.328;2023-02-01T04:00:56;6.30;99.90
2327;DHT22;1174;51.588;7.328;2023-02-01T04:03:24;6.30;99.90
2327;DHT22;1174;51.588;7.328;2023-02-01T04:05:52;6.30;99.90
2327;DHT22;1174;51.588;7.328;2023-02-01T04:08:20;6.20;99.90
2327;DHT22;1174;51.588;7.328;2023-02-01T04:10:48;6.20;99.90
2327;DHT22;1174;51.588;7.328;2023-02-01T04:13:16;6.30;99.90
2327;DHT22;1174;51.588;7.328;2023-02-01T04:15:43;6.20;99.90
2327;DHT22;1174;51.588;7.328;2023-02-01T04:18:11;6.20;99.90
2327;DHT22;1174;51.588;7.328;2023-02-01T04:20:38;6.40;99.90
2327;DHT22;1174;51.588;7.328;2023-02-01T04:23:05;6.40;99.90
2327;DHT22;1174;51.588;7.328;2023-02-01T04:25:32;6.40;99.90
2327;DHT22;1174;51.588;7.328;2023-02-01T04:28:00;6.30;99.90
2327;DHT22;1174;51.588;7.328;2023-02-01T04:30:27;6.30;99.90
2327;DHT22;1174;51.588;7.328;2023-02-01T04:32:54;6.40;99.90
2327;DHT22;1174;51.588;7.328;2023-02-01T04:35:21;6.40;99.90
2327;DHT22;1174;51.588;7.328;2023-02-01T04:37:49;6.50;99.90
2327;DHT22;1174;51.588;7.328;2023-02-01T04:40:16;6.50;99.90
2327;DHT22;1174;51.588;7.328;2023-02-01T04:42:43;6.50;99.90
2327;DHT22;1174;51.588;7.328;2023-02-01T04:45:11;6.40;99.90
2327;DHT22;1174;51.588;7.328;2023-02-01T04:47:39;6.40;99.90
2327;DHT22;1174;51.588;7.328;2023-02-01T04:50:07;6.40;99.90
2327;DHT22;1174;51.588;7.328;2023-02-01T04:52:36;6.40;99.90
2327;DHT22;1174;51.588;7.328;2023-02-01T04:55:05;6.30;99.90
2327;DHT22;1174;51.588;7.328;2023-02-01T04:57:32;6.40;99.90
2327;DHT22;1174;51.588;7.328;2023-02-01T04:59:59;6.40;99.90
2327;DHT22;1174;51.588;7.328;2023-02-01T05:02:27;6.40;99.90
2327;DHT22;1174;51.588;7.328;2023-02-01T05:04:54;6.40;99.90
2327;DHT22;1174;51.588;7.328;2023-02-01T05:07:21;6.40;99.90
2327;DHT22;1174;51.588;7.328;2023-02-01T05:09:48;6.40;99.90
2327;DHT22;1174;51.588;7.328;2023-02-01T05:12:15;6.40;99.90
2327;DHT22;1174;51.588;7.328;2023-02-01T05:15:08;6.40;99.90
2327;DHT22;1174;51.588;7.328;2023-02-01T05:17:38;6.40;99.90
2327;DHT22;1174;51.588;7.328;2023-02-01T05:20:09;6.40;99.90
2327;DHT22;1174;51.588;7.328;2023-02-01T05:22:36;6.30;99.90
2327;DHT22;1174;51.588;7.328;2023-02-01T05:25:04;6.50;99.90
2327;DHT22;1174;51.588;7.328;2023-02-01T05:27:31;6.40;99.90
2327;DHT22;1174;51.588;7.328;2023-02-01T05:29:58;6.30;99.90
2327;DHT22;1174;51.588;7.328;2023-02-01T05:32:24;6.30;99.90
2327;DHT22;1174;51.588;7.328;2023-02-01T05:34:53;6.30;99.90
2327;DHT22;1174;51.588;7.328;2023-02-01T05:37:20;6.30;99.90
2327;DHT22;1174;51.588;7.328;2023-02-01T05:39:47;6.40;99.90
2327;DHT22;1174;51.588;7.328;2023-02-01T05:42:14;6.30;99.90
2327;DHT22;1174;51.588;7.328;2023-02-01T05:44:41;6.30;99.90
2327;DHT22;1174;51.588;7.328;2023-02-01T05:47:08;6.20;99.90
2327;DHT22;1174;51.588;7.328;2023-02-01T05:49:35;6.20;99.90
2327;DHT22;1174;51.588;7.328;2023-02-01T05:52:04;6.30;99.90
2327;DHT22;1174;51.588;7.328;2023-02-01T05:54:31;6.30;99.90
2327;DHT22;1174;51.588;7.328;2023-02-01T05:56:58;6.30;99.90
2327;DHT22;1174;51.588;7.328;2023-02-01T05:59:25;6.20;99.90
2327;DHT22;1174;51.588;7.328;2023-02-01T06:01:52;6.20;99.90
2327;DHT22;1174;51.588;7.328;2023-02-01T06:04:20;6.10;99.90
2327;DHT22;1174;51.588;7.328;2023-02-01T06:06:47;6.10;99.90
2327;DHT22;1174;51.588;7.328;2023-02-01T06:09:17;6.20;99.90
2327;DHT22;1174;51.588;7.328;2023-02-01T06:11:44;6.10;99.90
2327;DHT22;1174;51.588;7.328;2023-02-01T06:14:11;6.20;99.90
2327;DHT22;1174;51.588;7.328;2023-02-01T06:16:38;6.10;99.90
2327;DHT22;1174;51.588;7.328;2023-02-01T06:19:05;6.20;99.90
2327;DHT22;1174;51.588;7.328;2023-02-01T06:21:32;6.20;99.90
2327;DHT22;1174;51.588;7.328;2023-02-01T06:23:59;6.20;99.90
2327;DHT22;1174;51.588;7.328;2023-02-01T06:26:29;6.20;99.90
2327;DHT22;1174;51.588;7.328;2023-02-01T06:28:59;6.20;99.90
2327;DHT22;1174;51.588;7.328;2023-02-01T06:31:26;6.20;99.90
2327;DHT22;1174;51.588;7.328;2023-02-01T06:33:53;6.20;99.90
2327;DHT22;1174;51.588;7.328;2023-02-01T06:36:20;6.20;99.90
2327;DHT22;1174;51.588;7.328;2023-02-01T06:38:47;6.20;99.90
2327;DHT22;1174;51.588;7.328;2023-02-01T06:41:14;6.20;99.90
2327;DHT22;1174;51.588;7.328;2023-02-01T06:43:45;6.20;99.90
2327;DHT22;1174;51.588;7.328;2023-02-01T06:46:13;6.20;99.90
2327;DHT22;1174;51.588;7.328;2023-02-01T06:48:40;6.30;99.90
2327;DHT22;1174;51.588;7.328;2023-02-01T06:51:20;6.20;99.90
2327;DHT22;1174;51.588;7.328;2023-02-01T06:53:48;6.20;99.90
2327;DHT22;1174;51.588;7.328;2023-02-01T06:56:15;6.30;99.90
2327;DHT22;1174;51.588;7.328;2023-02-01T06:58:43;6.30;99.90
2327;DHT22;1174;51.588;7.328;2023-02-01T07:01:12;6.20;99.90
2327;DHT22;1174;51.588;7.328;2023-02-01T07:03:41;6.20;99.90
2327;DHT22;1174;51.588;7.328;2023-02-01T07:06:11;6.20;99.90
2327;DHT22;1174;51.588;7.328;2023-02-01T07:08:38;6.30;99.90
2327;DHT22;1174;51.588;7.328;2023-02-01T07:11:06;6.20;99.90
2327;DHT22;1174;51.588;7.328;2023-02-01T07:13:34;6.20;99.90
2327;DHT22;1174;51.588;7.328;2023-02-01T07:16:03;6.20;99.90
2327;DHT22;1174;51.588;7.328;2023-02-01T07:18:31;6.20;99.90
2327;DHT22;1174;51.588;7.328;2023-02-01T07:20:59;6.20;99.90
2327;DHT22;1174;51.588;7.328;2023-02-01T07:23:26;6.30;99.90
2327;DHT22;1174;51.588;7.328;2023-02-01T07:25:54;6.30;99.90
2327;DHT22;1174;51.588;7.328;2023-02-01T07:28:21;6.30;99.90
2327;DHT22;1174;51.588;7.328;2023-02-01T07:30:48;6.40;99.90
2327;DHT22;1174;51.588;7.328;2023-02-01T07:33:18;6.40;99.90
2327;DHT22;1174;51.588;7.328;2023-02-01T07:35:46;6.40;99.90
2327;DHT22;1174;51.588;7.328;2023-02-01T07:38:13;6.40;99.90
2327;DHT22;1174;51.588;7.328;2023-02-01T07:40:40;6.40;99.90
2327;DHT22;1174;51.588;7.328;2023-02-01T07:43:07;6.40;99.90
2327;DHT22;1174;51.588;7.328;2023-02-01T07:45:35;6.30;99.90
2327;DHT22;1174;51.588;7.328;2023-02-01T07:48:05;6.40;99.90
2327;DHT22;1174;51.588;7.328;2023-02-01T07:50:34;6.40;99.90
2327;DHT22;1174;51.588;7.328;2023-02-01T07:53:03;6.50;99.90
2327;DHT22;1174;51.588;7.328;2023-02-01T07:55:33;6.50;99.90
2327;DHT22;1174;51.588;7.328;2023-02-01T07:58:00;6.50;99.90
2327;DHT22;1174;51.588;7.328;2023-02-01T08:00:27;6.50;99.90
2327;DHT22;1174;51.588;7.328;2023-02-01T08:03:11;6.40;99.90
2327;DHT22;1174;51.588;7.328;2023-02-01T08:05:40;6.40;99.90
2327;DHT22;1174;51.588;7.328;2023-02-01T08:08:07;6.40;99.90
2327;DHT22;1174;51.588;7.328;2023-02-01T08:10:34;6.40;99.90
2327;DHT22;1174;51.588;7.328;2023-02-01T08:13:02;6.40;99.90
2327;DHT22;1174;51.588;7.328;2023-02-01T08:15:29;6.40;99.90
2327;DHT22;1174;51.588;7.328;2023-02-01T08:17:56;6.40;99.90
2327;DHT22;1174;51.588;7.328;2023-02-01T08:20:24;6.40;99.90
2327;DHT22;1174;51.588;7.328;2023-02-01T08:22:55;6.30;99.90
2327;DHT22;1174;51.588;7.328;2023-02-01T08:25:23;6.40;99.90
2327;DHT22;1174;51.588;7.328;2023-02-01T08:27:50;6.40;99.90
2327;DHT22;1174;51.588;7.328;2023-02-01T08:30:19;6.40;99.90
2327;DHT22;1174;51.588;7.328;2023-02-01T08:32:46;6.50;99.90
2327;DHT22;1174;51.588;7.328;2023-02-01T08:35:13;6.50;99.90
2327;DHT22;1174;51.588;7.328;2023-02-01T08:37:40;6.50;99.90
2327;DHT22;1174;51.588;7.328;2023-02-01T08:40:11;6.50;99.90
2327;DHT22;1174;51.588;7.328;2023-02-01T08:42:39;6.50;99.90
2327;DHT22;1174;51.588;7.328;2023-02-01T08:45:18;6.60;99.90
2327;DHT22;1174;51.588;7.328;2023-02-01T08:47:46;6.60;99.90
2327;DHT22;1174;51.588;7.328;2023-02-01T08:50:14;6.60;99.90
2327;DHT22;1174;51.588;7.328;2023-02-01T08:52:41;6.60;99.90
2327;DHT22;1174;51.588;7.328;2023-02-01T08:55:10;6.60;99.90
2327;DHT22;1174;51.588;7.328;2023-02-01T08:57:37;6.60;99.90
2327;DHT22;1174;51.588;7.328;2023-02-01T09:00:06;6.60;99.90
2327;DHT22;1174;51.588;7.328;2023-02-01T09:02:34;6.70;99.90
2327;DHT22;1174;51.588;7.328;2023-02-01T09:05:01;6.70;99.90
2327;DHT22;1174;51.588;7.328;2023-02-01T09:07:29;6.70;99.90
2327;DHT22;1174;51.588;7.328;2023-02-01T09:09:56;6.70;99.90
2327;DHT22;1174;51.588;7.328;2023-02-01T09:12:28;6.70;99.90
2327;DHT22;1174;51.588;7.328;2023-02-01T09:14:58;6.60;99.90
2327;DHT22;1174;51.588;7.328;2023-02-01T09:17:25;6.70;99.90
2327;DHT22;1174;51.588;7.328;2023-02-01T09:19:52;6.80;99.90
2327;DHT22;1174;51.588;7.328;2023-02-01T09:22:19;6.80;99.90
2327;DHT22;1174;51.588;7.328;2023-02-01T09:24:46;6.80;99.90
2327;DHT22;1174;51.588;7.328;2023-02-01T09:27:13;6.90;99.90
2327;DHT22;1174;51.588;7.328;2023-02-01T09:29:41;6.80;99.90
2327;DHT22;1174;51.588;7.328;2023-02-01T09:32:09;6.90;99.90
2327;DHT22;1174;51.588;7.328;2023-02-01T09:34:36;6.80;99.90
2327;DHT22;1174;51.588;7.328;2023-02-01T09:37:04;6.90;99.90
2327;DHT22;1174;51.588;7.328;2023-02-01T09:39:31;6.80;99.90
2327;DHT22;1174;51.588;7.328;2023-02-01T09:42:06;6.90;99.90
2327;DHT22;1174;51.588;7.328;2023-02-01T09:44:50;7.10;99.90
2327;DHT22;1174;51.588;7.328;2023-02-01T09:47:22;7.20;99.90
2327;DHT22;1174;51.588;7.328;2023-02-01T09:49:56;7.20;99.90
2327;DHT22;1174;51.588;7.328;2023-02-01T09:52:29;7.10;99.90
2327;DHT22;1174;51.588;7.328;2023-02-01T09:55:00;7.10;99.90
2327;DHT22;1174;51.588;7.328;2023-02-01T09:57:40;7.20;99.90
2327;DHT22;1174;51.588;7.328;2023-02-01T10:00:18;7.10;99.90
2327;DHT22;1174;51.588;7.328;2023-02-01T10:02:47;7.10;99.90
2327;DHT22;1174;51.588;7.328;2023-02-01T10:05:16;7.10;99.90
2327;DHT22;1174;51.588;7.328;2023-02-01T10:07:51;7.10;99.90
2327;DHT22;1174;51.588;7.328;2023-02-01T10:10:26;7.10;99.90
2327;DHT22;1174;51.588;7.328;2023-02-01T10:13:29;7.30;99.90
2327;DHT22;1174;51.588;7.328;2023-02-01T10:16:13;7.40;99.90
2327;DHT22;1174;51.588;7.328;2023-02-01T10:19:01;7.20;99.90
2327;DHT22;1174;51.588;7.328;2023-02-01T10:21:41;7.20;99.90
2327;DHT22;1174;51.588;7.328;2023-02-01T10:24:37;7.30;99.90
2327;DHT22;1174;51.588;7.328;2023-02-01T10:27:13;7.40;99.90
2327;DHT22;1174;51.588;7.328;2023-02-01T10:29:43;7.40;99.90
2327;DHT22;1174;51.588;7.328;2023-02-01T10:32:16;7.30;99.90
2327;DHT22;1174;51.588;7.328;2023-02-01T10:34:46;7.30;99.90
2327;DHT22;1174;51.588;7.328;2023-02-01T10:37:25;7.30;99.90
2327;DHT22;1174;51.588;7.328;2023-02-01T10:39:54;7.20;99.90
2327;DHT22;1174;51.588;7.328;2023-02-01T10:42:25;7.30;99.90
2327;DHT22;1174;51.588;7.328;2023-02-01T10:44:54;7.40;99.90
2327;DHT22;1174;51.588;7.328;2023-02-01T10:47:24;7.20;99.90
2327;DHT22;1174;51.588;7.328;2023-02-01T10:49:56;7.10;99.90
2327;DHT22;1174;51.588;7.328;2023-02-01T10:52:36;7.10;99.90
2327;DHT22;1174;51.588;7.328;2023-02-01T10:55:39;7.20;99.90
2327;DHT22;1174;51.588;7.328;2023-02-01T10:58:15;7.20;99.90
2327;DHT22;1174;51.588;7.328;2023-02-01T11:00:48;7.20;99.90
2327;DHT22;1174;51.588;7.328;2023-02-01T11:03:35;7.20;99.90
2327;DHT22;1174;51.588;7.328;2023-02-01T11:06:16;7.20;99.90
2327;DHT22;1174;51.588;7.328;2023-02-01T11:08:48;7.30;99.90
2327;DHT22;1174;51.588;7.328;2023-02-01T11:11:15;7.30;99.90
2327;DHT22;1174;51.588;7.328;2023-02-01T11:13:42;7.30;99.90
2327;DHT22;1174;51.588;7.328;2023-02-01T11:16:13;7.30;99.90
2327;DHT22;1174;51.588;7.328;2023-02-01T11:18:42;7.30;99.90
2327;DHT22;1174;51.588;7.328;2023-02-01T11:21:14;7.30;99.90
2327;DHT22;1174;51.588;7.328;2023-02-01T11:23:43;7.30;99.90
2327;DHT22;1174;51.588;7.328;2023-02-01T11:26:13;7.20;99.90
2327;DHT22;1174;51.588;7.328;2023-02-01T11:28:52;7.20;99.90
2327;DHT22;1174;51.588;7.328;2023-02-01T11:31:19;7.30;99.90
2327;DHT22;1174;51.588;7.328;2023-02-01T11:33:50;7.30;99.90
2327;DHT22;1174;51.588;7.328;2023-02-01T11:36:21;7.40;99.90
2327;DHT22;1174;51.588;7.328;2023-02-01T11:38:54;7.50;99.90
2327;DHT22;1174;51.588;7.328;2023-02-01T11:41:23;7.70;99.90
2327;DHT22;1174;51.588;7.328;2023-02-01T11:43:55;7.70;99.90
2327;DHT22;1174;51.588;7.328;2023-02-01T11:46:29;7.60;99.90
2327;DHT22;1174;51.588;7.328;2023-02-01T11:49:18;7.60;99.90
2327;DHT22;1174;51.588;7.328;2023-02-01T11:51:54;7.60;99.90
2327;DHT22;1174;51.588;7.328;2023-02-01T11:54:37;7.60;99.90
2327;DHT22;1174;51.588;7.328;2023-02-01T11:57:24;7.60;99.90
2327;DHT22;1174;51.588;7.328;2023-02-01T12:00:18;7.60;99.90
2327;DHT22;1174;51.588;7.328;2023-02-01T12:03:04;7.60;99.90
2327;DHT22;1174;51.588;7.328;2023-02-01T12:05:48;7.50;99.90
2327;DHT22;1174;51.588;7.328;2023-02-01T12:08:36;7.30;99.90
2327;DHT22;1174;51.588;7.328;2023-02-01T12:11:25;7.10;99.90
2327;DHT22;1174;51.588;7.328;2023-02-01T12:14:04;7.00;99.90
2327;DHT22;1174;51.588;7.328;2023-02-01T12:16:40;6.90;99.90
2327;DHT22;1174;51.588;7.328;2023-02-01T12:19:20;6.90;99.90
2327;DHT22;1174;51.588;7.328;2023-02-01T12:22:08;6.70;99.90
2327;DHT22;1174;51.588;7.328;2023-02-01T12:25:00;6.80;99.90
2327;DHT22;1174;51.588;7.328;2023-02-01T12:30:49;6.90;99.90
2327;DHT22;1174;51.588;7.328;2023-02-01T12:33:27;6.90;99.90
2327;DHT22;1174;51.588;7.328;2023-02-01T12:36:12;7.00;99.90
2327;DHT22;1174;51.588;7.328;2023-02-01T12:38:51;7.00;99.90
2327;DHT22;1174;51.588;7.328;2023-02-01T12:41:44;7.10;99.90
2327;DHT22;1174;51.588;7.328;2023-02-01T12:44:20;7.20;99.90
2327;DHT22;1174;51.588;7.328;2023-02-01T12:46:53;7.20;99.90
2327;DHT22;1174;51.588;7.328;2023-02-01T12:49:30;7.20;99.90
2327;DHT22;1174;51.588;7.328;2023-02-01T12:52:04;7.30;99.90
2327;DHT22;1174;51.588;7.328;2023-02-01T12:54:37;7.30;99.90
2327;DHT22;1174;51.588;7.328;2023-02-01T12:57:09;7.30;99.90
2327;DHT22;1174;51.588;7.328;2023-02-01T12:59:41;7.30;99.90
2327;DHT22;1174;51.588;7.328;2023-02-01T13:02:15;7.40;99.90
2327;DHT22;1174;51.588;7.328;2023-02-01T13:04:55;7.50;99.90
2327;DHT22;1174;51.588;7.328;2023-02-01T13:07:28;7.40;99.90
2327;DHT22;1174;51.588;7.328;2023-02-01T13:10:01;7.30;99.90
2327;DHT22;1174;51.588;7.328;2023-02-01T13:12:43;7.30;99.90
2327;DHT22;1174;51.588;7.328;2023-02-01T13:15:14;7.30;99.90
2327;DHT22;1174;51.588;7.328;2023-02-01T13:17:44;7.30;99.90
2327;DHT22;1174;51.588;7.328;2023-02-01T13:20:18;7.30;99.90
2327;DHT22;1174;51.588;7.328;2023-02-01T13:22:48;7.30;99.90
2327;DHT22;1174;51.588;7.328;2023-02-01T13:25:25;7.30;99.90
2327;DHT22;1174;51.588;7.328;2023-02-01T13:27:54;7.30;99.90
2327;DHT22;1174;51.588;7.328;2023-02-01T13:30:25;7.40;99.90
2327;DHT22;1174;51.588;7.328;2023-02-01T13:33:11;7.40;99.90
2327;DHT22;1174;51.588;7.328;2023-02-01T13:35:51;7.40;99.90
2327;DHT22;1174;51.588;7.328;2023-02-01T13:38:44;7.50;99.90
2327;DHT22;1174;51.588;7.328;2023-02-01T13:41:25;7.50;99.90
2327;DHT22;1174;51.588;7.328;2023-02-01T13:43:57;7.50;99.90
2327;DHT22;1174;51.588;7.328;2023-02-01T13:46:26;7.60;99.90
2327;DHT22;1174;51.588;7.328;2023-02-01T13:48:59;7.50;99.90
2327;DHT22;1174;51.588;7.328;2023-02-01T13:51:40;7.50;99.90
2327;DHT22;1174;51.588;7.328;2023-02-01T13:54:28;7.60;99.90
2327;DHT22;1174;51.588;7.328;2023-02-01T13:56:58;7.60;99.90
2327;DHT22;1174;51.588;7.328;2023-02-01T14:00:08;7.70;99.90
2327;DHT22;1174;51.588;7.328;2023-02-01T14:02:47;7.70;99.90
2327;DHT22;1174;51.588;7.328;2023-02-01T14:08:23;7.80;99.90
2327;DHT22;1174;51.588;7.328;2023-02-01T14:11:01;7.80;99.90
2327;DHT22;1174;51.588;7.328;2023-02-01T14:13:32;7.80;99.90
2327;DHT22;1174;51.588;7.328;2023-02-01T14:16:16;7.70;99.90
2327;DHT22;1174;51.588;7.328;2023-02-01T14:18:59;7.60;99.90
2327;DHT22;1174;51.588;7.328;2023-02-01T14:21:29;7.70;99.90
2327;DHT22;1174;51.588;7.328;2023-02-01T14:24:00;7.70;99.90
2327;DHT22;1174;51.588;7.328;2023-02-01T14:26:42;7.70;99.90
2327;DHT22;1174;51.588;7.328;2023-02-01T14:29:25;7.90;99.90
2327;DHT22;1174;51.588;7.328;2023-02-01T14:31:59;7.90;99.90
2327;DHT22;1174;51.588;7.328;2023-02-01T14:34:37;7.90;99.90
2327;DHT22;1174;51.588;7.328;2023-02-01T14:37:11;7.90;99.90
2327;DHT22;1174;51.588;7.328;2023-02-01T14:39:54;7.80;99.90
2327;DHT22;1174;51.588;7.328;2023-02-01T14:42:29;7.70;99.90
2327;DHT22;1174;51.588;7.328;2023-02-01T14:51:08;7.70;99.90
2327;DHT22;1174;51.588;7.328;2023-02-01T14:53:36;7.70;99.90
2327;DHT22;1174;51.588;7.328;2023-02-01T14:56:07;7.70;99.90
2327;DHT22;1174;51.588;7.328;2023-02-01T14:58:41;7.70;99.90
2327;DHT22;1174;51.588;7.328;2023-02-01T15:01:29;7.70;99.90
2327;DHT22;1174;51.588;7.328;2023-02-01T15:04:01;7.80;99.90
2327;DHT22;1174;51.588;7.328;2023-02-01T15:06:33;7.80;99.90
2327;DHT22;1174;51.588;7.328;2023-02-01T15:09:03;7.80;99.90
2327;DHT22;1174;51.588;7.328;2023-02-01T15:11:30;7.90;99.90
2327;DHT22;1174;51.588;7.328;2023-02-01T15:13:57;7.90;99.90
2327;DHT22;1174;51.588;7.328;2023-02-01T15:16:26;7.80;99.90
2327;DHT22;1174;51.588;7.328;2023-02-01T15:19:13;7.90;99.90
2327;DHT22;1174;51.588;7.328;2023-02-01T15:21:45;7.90;99.90
2327;DHT22;1174;51.588;7.328;2023-02-01T15:24:17;7.80;99.90
2327;DHT22;1174;51.588;7.328;2023-02-01T15:26:45;7.90;99.90
2327;DHT22;1174;51.588;7.328;2023-02-01T15:29:13;7.70;99.90
2327;DHT22;1174;51.588;7.328;2023-02-01T15:31:42;7.70;99.90
2327;DHT22;1174;51.588;7.328;2023-02-01T15:34:11;7.60;99.90
2327;DHT22;1174;51.588;7.328;2023-02-01T15:36:39;7.60;99.90
2327;DHT22;1174;51.588;7.328;2023-02-01T15:39:27;7.60;99.90
2327;DHT22;1174;51.588;7.328;2023-02-01T15:41:57;7.70;99.90
2327;DHT22;1174;51.588;7.328;2023-02-01T15:44:31;7.70;99.90
2327;DHT22;1174;51.588;7.328;2023-02-01T15:47:04;7.70;99.90
2327;DHT22;1174;51.588;7.328;2023-02-01T15:49:37;7.70;99.90
2327;DHT22;1174;51.588;7.328;2023-02-01T15:52:21;7.70;99.90
2327;DHT22;1174;51.588;7.328;2023-02-01T15:54:51;7.80;99.90
2327;DHT22;1174;51.588;7.328;2023-02-01T15:57:20;7.80;99.90
2327;DHT22;1174;51.588;7.328;2023-02-01T15:59:56;7.80;99.90
2327;DHT22;1174;51.588;7.328;2023-02-01T16:02:28;7.90;99.90
2327;DHT22;1174;51.588;7.328;2023-02-01T16:05:01;7.90;99.90
2327;DHT22;1174;51.588;7.328;2023-02-01T16:07:30;7.90;99.90
2327;DHT22;1174;51.588;7.328;2023-02-01T16:09:59;7.90;99.90
2327;DHT22;1174;51.588;7.328;2023-02-01T16:12:33;7.90;99.90
2327;DHT22;1174;51.588;7.328;2023-02-01T16:15:01;8.00;99.90
2327;DHT22;1174;51.588;7.328;2023-02-01T16:17:29;7.90;99.90
2327;DHT22;1174;51.588;7.328;2023-02-01T16:19:59;8.00;99.90
2327;DHT22;1174;51.588;7.328;2023-02-01T16:22:26;8.00;99.90
2327;DHT22;1174;51.588;7.328;2023-02-01T16:24:53;8.00;99.90
2327;DHT22;1174;51.588;7.328;2023-02-01T16:27:20;8.00;99.90
2327;DHT22;1174;51.588;7.328;2023-02-01T16:29:49;7.90;99.90
2327;DHT22;1174;51.588;7.328;2023-02-01T16:32:17;8.00;99.90
2327;DHT22;1174;51.588;7.328;2023-02-01T16:34:45;7.90;99.90
2327;DHT22;1174;51.588;7.328;2023-02-01T16:37:16;8.00;99.90
2327;DHT22;1174;51.588;7.328;2023-02-01T16:39:46;7.90;99.90
2327;DHT22;1174;51.588;7.328;2023-02-01T16:42:14;7.90;99.90
2327;DHT22;1174;51.588;7.328;2023-02-01T16:44:43;7.70;99.90
2327;DHT22;1174;51.588;7.328;2023-02-01T16:47:13;7.50;99.90
2327;DHT22;1174;51.588;7.328;2023-02-01T16:49:42;7.40;99.90
2327;DHT22;1174;51.588;7.328;2023-02-01T16:52:16;7.30;99.90
2327;DHT22;1174;51.588;7.328;2023-02-01T16:54:44;7.30;99.90
2327;DHT22;1174;51.588;7.328;2023-02-01T16:57:12;7.30;99.90
2327;DHT22;1174;51.588;7.328;2023-02-01T16:59:40;7.30;99.90
2327;DHT22;1174;51.588;7.328;2023-02-01T17:02:10;7.30;99.90
2327;DHT22;1174;51.588;7.328;2023-02-01T17:04:38;6.90;99.90